Mary Bennett — WDC4592 — position and weather

sailwx.info

Track history (hours):
 
Tides and Currents Weather Stations Pressure Air Temp Water Temp Dewpoint Dewpoint Depression Visibility Wind Speed Wind Dir Waves Ship Positions

Mary Bennett

Owner: Savannah Marine Services, Savannah, GA. More information available from US FCC via Universal Licensing System and Coast Guard Vessel Documentation Center.

Last reported at 2017-Nov-20 00:30 UTC. Time now 2017-Nov-20 06:05 UTC.
Position N 32°05' W 081°06'.

Length 21 m; draft 2.3 m.

Type: Tug. MMSI: 367027140.

Date/timePositionNaut miles runAvg speedWind from/ knotsBaromVisibWave heightAir tempDewpointWater temp
2017-Nov-20 00:30N 32°05' W 081°06'0 0.0
2017-Nov-20 00:00N 32°05' W 081°06'0 0.0
2017-Nov-19 23:30N 32°05' W 081°06'0 0.0
2017-Nov-19 23:00N 32°05' W 081°06'0 0.1
2017-Nov-19 22:30N 32°05' W 081°06'3 5.1
2017-Nov-19 22:00N 32°07' W 081°08'0 0.7
2017-Nov-19 21:30N 32°07' W 081°08'0 0.3
2017-Nov-19 21:00N 32°07' W 081°08'0 0.1
2017-Nov-19 20:30N 32°07' W 081°08'0 0.3
2017-Nov-19 20:00N 32°07' W 081°08'0 0.1
2017-Nov-19 19:30N 32°07' W 081°08'0 0.2
2017-Nov-19 19:00N 32°07' W 081°08'0 0.0
2017-Nov-19 18:30N 32°07' W 081°08'0 0.6
2017-Nov-19 18:00N 32°07' W 081°08'0 0.0
2017-Nov-19 17:30N 32°07' W 081°08'0 0.6
2017-Nov-19 17:00N 32°07' W 081°08'0 0.0
2017-Nov-19 16:30N 32°07' W 081°08'0 0.5
2017-Nov-19 16:00N 32°07' W 081°08'0 0.6
2017-Nov-19 15:30N 32°07' W 081°08'0 0.8
2017-Nov-19 15:00N 32°07' W 081°08'0 0.1
2017-Nov-19 14:30N 32°07' W 081°08'0 0.6
2017-Nov-19 14:00N 32°07' W 081°08'0 0.1
2017-Nov-19 13:30N 32°07' W 081°08'1 1.6
2017-Nov-19 13:00N 32°06' W 081°07'2 0.1
2017-Nov-18 23:31N 32°05' W 081°06'0 0.0
2017-Nov-18 23:30N 32°05' W 081°06'0 0.1
2017-Nov-18 23:00N 32°05' W 081°06'3 6.3
2017-Nov-18 22:30N 32°05' W 081°02'2 4.4
2017-Nov-18 22:00N 32°05' W 080°59'0 0.0
2017-Nov-18 21:30N 32°05' W 080°59'0 0.0
2017-Nov-18 21:00N 32°05' W 080°59'0 0.0
2017-Nov-18 20:30N 32°05' W 080°59'0 0.0
2017-Nov-18 20:00N 32°05' W 080°59'0 0.9
2017-Nov-18 19:30N 32°05' W 080°60'3 6.7
2017-Nov-18 19:00N 32°05' W 081°03'2 3.8
2017-Nov-18 18:30N 32°05' W 081°06'0 0.3
2017-Nov-18 18:00N 32°05' W 081°06'3 5.3
2017-Nov-18 17:30N 32°07' W 081°08'0 0.2
2017-Nov-18 17:00N 32°07' W 081°08'0 0.2
2017-Nov-18 16:30N 32°07' W 081°08'0 0.1
2017-Nov-18 16:01N 32°07' W 081°08'0 0.4
2017-Nov-18 15:30N 32°07' W 081°08'0 0.4
2017-Nov-18 15:00N 32°07' W 081°08'0 0.4
2017-Nov-18 14:30N 32°07' W 081°08'0 0.2
2017-Nov-18 14:01N 32°07' W 081°08'0 0.2
2017-Nov-18 13:30N 32°07' W 081°08'0 0.1
2017-Nov-18 13:00N 32°07' W 081°08'0 0.4
2017-Nov-18 12:30N 32°07' W 081°08'0 0.3
2017-Nov-18 12:00N 32°07' W 081°08'0 0.1
2017-Nov-18 11:30N 32°07' W 081°08'0 0.1
2017-Nov-18 11:00N 32°07' W 081°08'0 0.2
2017-Nov-18 10:30N 32°07' W 081°08'0 0.2
2017-Nov-18 10:00N 32°07' W 081°08'0 0.3
2017-Nov-18 09:30N 32°07' W 081°08'0 0.0
2017-Nov-18 09:00N 32°07' W 081°08'0 0.2
2017-Nov-18 08:30N 32°07' W 081°08'0 0.6
2017-Nov-18 08:01N 32°07' W 081°08'0 0.2
2017-Nov-18 07:30N 32°07' W 081°08'0 0.1
2017-Nov-18 07:00N 32°07' W 081°08'0 0.0
2017-Nov-18 06:30N 32°07' W 081°08'2 3.2
2017-Nov-18 06:00N 32°06' W 081°07'1 2.0
2017-Nov-18 05:30N 32°05' W 081°06'0 0.0
2017-Nov-18 05:00N 32°05' W 081°06'0 0.0
2017-Nov-18 04:30N 32°05' W 081°06'0 0.8
2017-Nov-18 04:00N 32°05' W 081°05'3 5.3
2017-Nov-18 03:30N 32°05' W 081°02'2 4.5
2017-Nov-18 03:00N 32°05' W 080°59'1 2.6
2017-Nov-18 02:31N 32°04' W 081°01'3 6.8
2017-Nov-18 02:01N 32°02' W 081°03'2 4.7
2017-Nov-18 01:30N 31°59' W 081°02'3 5.6
2017-Nov-18 01:00N 31°57' W 081°04'3 5.1
2017-Nov-18 00:30N 31°55' W 081°06'4 7.5
2017-Nov-18 00:00N 31°52' W 081°05'3 5.6
2017-Nov-17 23:25N 31°51' W 081°09'3 6.6
2017-Nov-17 23:00N 31°49' W 081°11'5 6.8
2017-Nov-17 22:15N 31°44' W 081°09'  
2017-Nov-14 17:02N 31°47' W 081°10'1 7.0
2017-Nov-14 16:52N 31°48' W 081°11'2 6.8
2017-Nov-14 16:30N 31°50' W 081°10'3 6.4
2017-Nov-14 16:00N 31°51' W 081°06'2 3.7
2017-Nov-14 15:30N 31°53' W 081°05'2 4.8
2017-Nov-14 15:00N 31°55' W 081°05'3 5.6
2017-Nov-14 14:30N 31°58' W 081°03'2 4.2
2017-Nov-14 14:00N 31°59' W 081°02'2 4.6
2017-Nov-14 13:30N 32°02' W 081°03'3 5.8
2017-Nov-14 13:00N 32°04' W 081°01'3 5.3
2017-Nov-14 12:30N 32°04' W 080°58'3 6.0
2017-Nov-14 12:00N 32°05' W 081°02'3 6.5
2017-Nov-14 11:31N 32°05' W 081°05'0 0.1
2017-Nov-14 11:00N 32°05' W 081°05'0 0.5
2017-Nov-14 10:30N 32°05' W 081°06'0 0.0
2017-Nov-14 10:01N 32°05' W 081°06'0 0.0
2017-Nov-14 09:30N 32°05' W 081°06'0 0.0
2017-Nov-14 09:00N 32°05' W 081°06'0 0.0
2017-Nov-14 08:30N 32°05' W 081°06'0 0.0
2017-Nov-14 08:00N 32°05' W 081°06'0 0.0
2017-Nov-14 07:30N 32°05' W 081°06'0 0.0
2017-Nov-14 07:00N 32°05' W 081°06'0 0.0
2017-Nov-14 06:30N 32°05' W 081°06'0 0.0
2017-Nov-14 06:00N 32°05' W 081°06'0 0.0
2017-Nov-14 05:30N 32°05' W 081°06'0 0.0
2017-Nov-14 05:00N 32°05' W 081°06'0 0.0
2017-Nov-14 04:30N 32°05' W 081°06'0 0.0
2017-Nov-14 04:00N 32°05' W 081°06'0 0.0
2017-Nov-14 03:30N 32°05' W 081°06'0 0.0
2017-Nov-14 03:01N 32°05' W 081°06'0 0.0
2017-Nov-14 02:30N 32°05' W 081°06'0 0.0
2017-Nov-14 02:00N 32°05' W 081°06'0 0.0
2017-Nov-14 01:30N 32°05' W 081°06'0 0.0
2017-Nov-14 01:00N 32°05' W 081°06'0 0.0
2017-Nov-14 00:30N 32°05' W 081°06'0 0.0
2017-Nov-14 00:00N 32°05' W 081°06'0 0.0
2017-Nov-13 23:31N 32°05' W 081°06'0 0.0
2017-Nov-13 23:00N 32°05' W 081°06'0 0.0
2017-Nov-13 22:30N 32°05' W 081°06'0 0.0
2017-Nov-13 22:00N 32°05' W 081°06'0 0.0
2017-Nov-13 00:29N 32°05' W 081°06'0 0.0
2017-Nov-13 00:00N 32°05' W 081°06'0 0.2
2017-Nov-12 23:30N 32°05' W 081°06'2 3.9
2017-Nov-12 23:00N 32°05' W 081°03'3 6.1
2017-Nov-12 22:30N 32°06' W 080°60'2 5.0
2017-Nov-12 22:00N 32°05' W 080°57'3 5.9
2017-Nov-12 21:30N 32°06' W 080°54'3 6.3
2017-Nov-12 21:00N 32°08' W 080°52'4 7.3
2017-Nov-12 20:30N 32°10' W 080°48'3 6.6
2017-Nov-12 20:00N 32°13' W 080°47'246 5.8
2017-Nov-11 01:34N 34°43' W 076°53'1 6.8
2017-Nov-11 01:28N 34°43' W 076°52'3 6.4
2017-Nov-11 01:01N 34°43' W 076°49'3 6.0
2017-Nov-11 00:31N 34°43' W 076°45'3 5.6
2017-Nov-11 00:01N 34°43' W 076°42'4 7.1
2017-Nov-10 23:30N 34°47' W 076°41'4 9.0
2017-Nov-10 23:01N 34°51' W 076°41'5 7.7
2017-Nov-10 22:19N 34°56' W 076°39'  
Track history (hours):
 
Tides and Currents Weather Stations Pressure Air Temp Water Temp Dewpoint Dewpoint Depression Visibility Wind Speed Wind Dir Waves Ship Positions

Mary Bennett

Owner: Savannah Marine Services, Savannah, GA. More information available from US FCC via Universal Licensing System and Coast Guard Vessel Documentation Center.

Last reported at 2017-Nov-20 00:30 UTC. Time now 2017-Nov-20 06:05 UTC.
Position N 32°05' W 081°06'.

Length 21 m; draft 2.3 m.

Type: Tug. MMSI: 367027140.

Date/timePositionNaut miles runAvg speedWind from/ knotsBaromVisibWave heightAir tempDewpointWater temp
2017-Nov-20 00:30N 32°05' W 081°06'0 0.0
2017-Nov-20 00:00N 32°05' W 081°06'0 0.0
2017-Nov-19 23:30N 32°05' W 081°06'0 0.0
2017-Nov-19 23:00N 32°05' W 081°06'0 0.1
2017-Nov-19 22:30N 32°05' W 081°06'3 5.1
2017-Nov-19 22:00N 32°07' W 081°08'0 0.7
2017-Nov-19 21:30N 32°07' W 081°08'0 0.3
2017-Nov-19 21:00N 32°07' W 081°08'0 0.1
2017-Nov-19 20:30N 32°07' W 081°08'0 0.3
2017-Nov-19 20:00N 32°07' W 081°08'0 0.1
2017-Nov-19 19:30N 32°07' W 081°08'0 0.2
2017-Nov-19 19:00N 32°07' W 081°08'0 0.0
2017-Nov-19 18:30N 32°07' W 081°08'0 0.6
2017-Nov-19 18:00N 32°07' W 081°08'0 0.0
2017-Nov-19 17:30N 32°07' W 081°08'0 0.6
2017-Nov-19 17:00N 32°07' W 081°08'0 0.0
2017-Nov-19 16:30N 32°07' W 081°08'0 0.5
2017-Nov-19 16:00N 32°07' W 081°08'0 0.6
2017-Nov-19 15:30N 32°07' W 081°08'0 0.8
2017-Nov-19 15:00N 32°07' W 081°08'0 0.1
2017-Nov-19 14:30N 32°07' W 081°08'0 0.6
2017-Nov-19 14:00N 32°07' W 081°08'0 0.1
2017-Nov-19 13:30N 32°07' W 081°08'1 1.6
2017-Nov-19 13:00N 32°06' W 081°07'2 0.1
2017-Nov-18 23:31N 32°05' W 081°06'0 0.0
2017-Nov-18 23:30N 32°05' W 081°06'0 0.1
2017-Nov-18 23:00N 32°05' W 081°06'3 6.3
2017-Nov-18 22:30N 32°05' W 081°02'2 4.4
2017-Nov-18 22:00N 32°05' W 080°59'0 0.0
2017-Nov-18 21:30N 32°05' W 080°59'0 0.0
2017-Nov-18 21:00N 32°05' W 080°59'0 0.0
2017-Nov-18 20:30N 32°05' W 080°59'0 0.0
2017-Nov-18 20:00N 32°05' W 080°59'0 0.9
2017-Nov-18 19:30N 32°05' W 080°60'3 6.7
2017-Nov-18 19:00N 32°05' W 081°03'2 3.8
2017-Nov-18 18:30N 32°05' W 081°06'0 0.3
2017-Nov-18 18:00N 32°05' W 081°06'3 5.3
2017-Nov-18 17:30N 32°07' W 081°08'0 0.2
2017-Nov-18 17:00N 32°07' W 081°08'0 0.2
2017-Nov-18 16:30N 32°07' W 081°08'0 0.1
2017-Nov-18 16:01N 32°07' W 081°08'0 0.4
2017-Nov-18 15:30N 32°07' W 081°08'0 0.4
2017-Nov-18 15:00N 32°07' W 081°08'0 0.4
2017-Nov-18 14:30N 32°07' W 081°08'0 0.2
2017-Nov-18 14:01N 32°07' W 081°08'0 0.2
2017-Nov-18 13:30N 32°07' W 081°08'0 0.1
2017-Nov-18 13:00N 32°07' W 081°08'0 0.4
2017-Nov-18 12:30N 32°07' W 081°08'0 0.3
2017-Nov-18 12:00N 32°07' W 081°08'0 0.1
2017-Nov-18 11:30N 32°07' W 081°08'0 0.1
2017-Nov-18 11:00N 32°07' W 081°08'0 0.2
2017-Nov-18 10:30N 32°07' W 081°08'0 0.2
2017-Nov-18 10:00N 32°07' W 081°08'0 0.3
2017-Nov-18 09:30N 32°07' W 081°08'0 0.0
2017-Nov-18 09:00N 32°07' W 081°08'0 0.2
2017-Nov-18 08:30N 32°07' W 081°08'0 0.6
2017-Nov-18 08:01N 32°07' W 081°08'0 0.2
2017-Nov-18 07:30N 32°07' W 081°08'0 0.1
2017-Nov-18 07:00N 32°07' W 081°08'0 0.0
2017-Nov-18 06:30N 32°07' W 081°08'2 3.2
2017-Nov-18 06:00N 32°06' W 081°07'1 2.0
2017-Nov-18 05:30N 32°05' W 081°06'0 0.0
2017-Nov-18 05:00N 32°05' W 081°06'0 0.0
2017-Nov-18 04:30N 32°05' W 081°06'0 0.8
2017-Nov-18 04:00N 32°05' W 081°05'3 5.3
2017-Nov-18 03:30N 32°05' W 081°02'2 4.5
2017-Nov-18 03:00N 32°05' W 080°59'1 2.6
2017-Nov-18 02:31N 32°04' W 081°01'3 6.8
2017-Nov-18 02:01N 32°02' W 081°03'2 4.7
2017-Nov-18 01:30N 31°59' W 081°02'3 5.6
2017-Nov-18 01:00N 31°57' W 081°04'3 5.1
2017-Nov-18 00:30N 31°55' W 081°06'4 7.5
2017-Nov-18 00:00N 31°52' W 081°05'3 5.6
2017-Nov-17 23:25N 31°51' W 081°09'3 6.6
2017-Nov-17 23:00N 31°49' W 081°11'5 6.8
2017-Nov-17 22:15N 31°44' W 081°09'  
2017-Nov-14 17:02N 31°47' W 081°10'1 7.0
2017-Nov-14 16:52N 31°48' W 081°11'2 6.8
2017-Nov-14 16:30N 31°50' W 081°10'3 6.4
2017-Nov-14 16:00N 31°51' W 081°06'2 3.7
2017-Nov-14 15:30N 31°53' W 081°05'2 4.8
2017-Nov-14 15:00N 31°55' W 081°05'3 5.6
2017-Nov-14 14:30N 31°58' W 081°03'2 4.2
2017-Nov-14 14:00N 31°59' W 081°02'2 4.6
2017-Nov-14 13:30N 32°02' W 081°03'3 5.8
2017-Nov-14 13:00N 32°04' W 081°01'3 5.3
2017-Nov-14 12:30N 32°04' W 080°58'3 6.0
2017-Nov-14 12:00N 32°05' W 081°02'3 6.5
2017-Nov-14 11:31N 32°05' W 081°05'0 0.1
2017-Nov-14 11:00N 32°05' W 081°05'0 0.5
2017-Nov-14 10:30N 32°05' W 081°06'0 0.0
2017-Nov-14 10:01N 32°05' W 081°06'0 0.0
2017-Nov-14 09:30N 32°05' W 081°06'0 0.0
2017-Nov-14 09:00N 32°05' W 081°06'0 0.0
2017-Nov-14 08:30N 32°05' W 081°06'0 0.0
2017-Nov-14 08:00N 32°05' W 081°06'0 0.0
2017-Nov-14 07:30N 32°05' W 081°06'0 0.0
2017-Nov-14 07:00N 32°05' W 081°06'0 0.0
2017-Nov-14 06:30N 32°05' W 081°06'0 0.0
2017-Nov-14 06:00N 32°05' W 081°06'0 0.0
2017-Nov-14 05:30N 32°05' W 081°06'0 0.0
2017-Nov-14 05:00N 32°05' W 081°06'0 0.0
2017-Nov-14 04:30N 32°05' W 081°06'0 0.0
2017-Nov-14 04:00N 32°05' W 081°06'0 0.0
2017-Nov-14 03:30N 32°05' W 081°06'0 0.0
2017-Nov-14 03:01N 32°05' W 081°06'0 0.0
2017-Nov-14 02:30N 32°05' W 081°06'0 0.0
2017-Nov-14 02:00N 32°05' W 081°06'0 0.0
2017-Nov-14 01:30N 32°05' W 081°06'0 0.0
2017-Nov-14 01:00N 32°05' W 081°06'0 0.0
2017-Nov-14 00:30N 32°05' W 081°06'0 0.0
2017-Nov-14 00:00N 32°05' W 081°06'0 0.0
2017-Nov-13 23:31N 32°05' W 081°06'0 0.0
2017-Nov-13 23:00N 32°05' W 081°06'0 0.0
2017-Nov-13 22:30N 32°05' W 081°06'0 0.0
2017-Nov-13 22:00N 32°05' W 081°06'0 0.0
2017-Nov-13 00:29N 32°05' W 081°06'0 0.0
2017-Nov-13 00:00N 32°05' W 081°06'0 0.2
2017-Nov-12 23:30N 32°05' W 081°06'2 3.9
2017-Nov-12 23:00N 32°05' W 081°03'3 6.1
2017-Nov-12 22:30N 32°06' W 080°60'2 5.0
2017-Nov-12 22:00N 32°05' W 080°57'3 5.9
2017-Nov-12 21:30N 32°06' W 080°54'3 6.3
2017-Nov-12 21:00N 32°08' W 080°52'4 7.3
2017-Nov-12 20:30N 32°10' W 080°48'3 6.6
2017-Nov-12 20:00N 32°13' W 080°47'246 5.8
2017-Nov-11 01:34N 34°43' W 076°53'1 6.8
2017-Nov-11 01:28N 34°43' W 076°52'3 6.4
2017-Nov-11 01:01N 34°43' W 076°49'3 6.0
2017-Nov-11 00:31N 34°43' W 076°45'3 5.6
2017-Nov-11 00:01N 34°43' W 076°42'4 7.1
2017-Nov-10 23:30N 34°47' W 076°41'4 9.0
2017-Nov-10 23:01N 34°51' W 076°41'5 7.7
2017-Nov-10 22:19N 34°56' W 076°39'  

Dump ship's entire track history